XS96 weather

Hillwood Heliport
Fort Worth, Texas, United States

Public forecast

Using degrees Fahrenheit for public forecast. Weather courtesy of forecast.io.

Closest aviation weather report (METAR) to Hillwood Heliport

Closest report is Fort Worth Alliance Airport, 0.8 nm (1.6 km) NW. Retrieved 2019/11/18 11:53 UTC (49 minutes ago):

KAFW 181153Z 25003KT 10SM FEW300 05/01 A2999 RMK AO2 SLP157 T00500011 10089 20044 55001

Closest aviation forecast (TAF) to Hillwood Heliport

Closest forecast is Fort Worth Alliance Airport, 0.8 nm (1.6 km) NW. Retrieved 2019/11/18 12:24 UTC (18 minutes ago):

TAF KAFW 181122Z 1812/1912 23006KT P6SM FEW250